EDV1455 KPHX-KELP
Flight info
| Callsign | EDV1455 |
|---|---|
| Flight time | 0h 59m |
| Altitude | 35000 |
| Route | ECLPS1 PHASE TEEES MOLLY5 |
| Aircraft | CRJ9/M-SDFGIRWY/S |
Departure
| Time | 2026-04-25 17:13 |
|---|---|
| Airport | Phoenix Sky Harbor International Airport (KPHX) |
Arrival
| Time | 2026-04-25 18:13 |
|---|---|
| Airport | El Paso International Airport (KELP) |
| Time | Latitude | Longitude | Altitude | Speed | Heading |
|---|---|---|---|---|---|
| 2026-04-25 16:58 | 33.43722 | -111.99865 | 1122 ft | 0 kts | 270° |
| 2026-04-25 17:01 | 33.43721 | -111.99839 | 1113 ft | 4 kts | 285° |
| 2026-04-25 17:01 | 33.43710 | -111.99826 | 1114 ft | 4 kts | 360° |
| 2026-04-25 17:02 | 33.43727 | -111.99826 | 1118 ft | 4 kts | 0° |
| 2026-04-25 17:02 | 33.43754 | -111.99826 | 1120 ft | 4 kts | 0° |
| 2026-04-25 17:02 | 33.43766 | -111.99826 | 1120 ft | 0 kts | 0° |
| 2026-04-25 17:05 | 33.43767 | -111.99826 | 1120 ft | 1 kts | 0° |
| 2026-04-25 17:06 | 33.43809 | -111.99826 | 1123 ft | 9 kts | 0° |
| 2026-04-25 17:06 | 33.43882 | -111.99834 | 1123 ft | 12 kts | 334° |
| 2026-04-25 17:06 | 33.43904 | -111.99918 | 1122 ft | 12 kts | 270° |
| 2026-04-25 17:06 | 33.43905 | -112.00029 | 1123 ft | 15 kts | 270° |
| 2026-04-25 17:07 | 33.43904 | -112.00167 | 1123 ft | 18 kts | 269° |
| 2026-04-25 17:07 | 33.43904 | -112.00318 | 1123 ft | 13 kts | 269° |
| 2026-04-25 17:07 | 33.43854 | -112.00379 | 1117 ft | 11 kts | 187° |
| 2026-04-25 17:07 | 33.43767 | -112.00379 | 1118 ft | 14 kts | 181° |
| 2026-04-25 17:08 | 33.43662 | -112.00380 | 1116 ft | 16 kts | 180° |
| 2026-04-25 17:08 | 33.43541 | -112.00380 | 1119 ft | 19 kts | 180° |
| 2026-04-25 17:08 | 33.43408 | -112.00380 | 1121 ft | 19 kts | 180° |
| 2026-04-25 17:08 | 33.43306 | -112.00393 | 1121 ft | 12 kts | 215° |
| 2026-04-25 17:09 | 33.43285 | -112.00480 | 1117 ft | 12 kts | 274° |
| 2026-04-25 17:09 | 33.43288 | -112.00594 | 1116 ft | 15 kts | 270° |
| 2026-04-25 17:09 | 33.43289 | -112.00729 | 1116 ft | 18 kts | 269° |
| 2026-04-25 17:09 | 33.43287 | -112.00887 | 1116 ft | 20 kts | 270° |
| 2026-04-25 17:10 | 33.43287 | -112.01066 | 1116 ft | 23 kts | 269° |
| 2026-04-25 17:10 | 33.43289 | -112.01264 | 1115 ft | 25 kts | 271° |
| 2026-04-25 17:10 | 33.43291 | -112.01479 | 1115 ft | 27 kts | 270° |
| 2026-04-25 17:10 | 33.43293 | -112.01711 | 1123 ft | 29 kts | 270° |
| 2026-04-25 17:11 | 33.43285 | -112.01954 | 1117 ft | 30 kts | 268° |
| 2026-04-25 17:11 | 33.43300 | -112.02207 | 1121 ft | 31 kts | 277° |
| 2026-04-25 17:11 | 33.43289 | -112.02461 | 1114 ft | 31 kts | 270° |
| 2026-04-25 17:11 | 33.43285 | -112.02661 | 1123 ft | 16 kts | 253° |
| 2026-04-25 17:12 | 33.43229 | -112.02698 | 1116 ft | 7 kts | 184° |
| 2026-04-25 17:12 | 33.43152 | -112.02698 | 1121 ft | 13 kts | 178° |
| 2026-04-25 17:12 | 33.43106 | -112.02634 | 1119 ft | 12 kts | 97° |
| 2026-04-25 17:12 | 33.43106 | -112.02449 | 1124 ft | 49 kts | 90° |
| 2026-04-25 17:13 | 33.43106 | -112.01725 | 1125 ft | 123 kts | 90° |
| 2026-04-25 17:13 | 33.43105 | -112.01364 | 1125 ft | 143 kts | 90° |
| 2026-04-25 17:13 | 33.43136 | -111.98975 | 1821 ft | 183 kts | 91° |
| 2026-04-25 17:13 | 33.43145 | -111.97530 | 2860 ft | 166 kts | 91° |
| 2026-04-25 17:14 | 33.43160 | -111.96123 | 3500 ft | 179 kts | 90° |
| 2026-04-25 17:14 | 33.43220 | -111.94542 | 3986 ft | 196 kts | 91° |
| 2026-04-25 17:14 | 33.43319 | -111.92982 | 4978 ft | 179 kts | 84° |
| 2026-04-25 17:14 | 33.43522 | -111.91523 | 5644 ft | 182 kts | 83° |
| 2026-04-25 17:15 | 33.43723 | -111.89917 | 5862 ft | 207 kts | 87° |
| 2026-04-25 17:15 | 33.43761 | -111.88216 | 6517 ft | 196 kts | 98° |
| 2026-04-25 17:15 | 33.43548 | -111.86601 | 7025 ft | 206 kts | 107° |
| 2026-04-25 17:15 | 33.43104 | -111.84827 | 7151 ft | 235 kts | 114° |
| 2026-04-25 17:16 | 33.42468 | -111.83045 | 7941 ft | 228 kts | 121° |
| 2026-04-25 17:16 | 33.41683 | -111.81393 | 8676 ft | 231 kts | 128° |
| 2026-04-25 17:16 | 33.40703 | -111.79801 | 9178 ft | 244 kts | 136° |
| 2026-04-25 17:16 | 33.39532 | -111.78314 | 9860 ft | 245 kts | 143° |
| 2026-04-25 17:17 | 33.38249 | -111.77028 | 10697 ft | 236 kts | 151° |
| 2026-04-25 17:17 | 33.36881 | -111.75971 | 11374 ft | 236 kts | 159° |
| 2026-04-25 17:17 | 33.35369 | -111.75108 | 11835 ft | 246 kts | 166° |
| 2026-04-25 17:17 | 33.33735 | -111.74461 | 12415 ft | 247 kts | 173° |
| 2026-04-25 17:18 | 33.32061 | -111.74017 | 13056 ft | 254 kts | 172° |
| 2026-04-25 17:18 | 33.30331 | -111.73093 | 13130 ft | 291 kts | 154° |
| 2026-04-25 17:18 | 33.28655 | -111.71529 | 13357 ft | 318 kts | 144° |
| 2026-04-25 17:18 | 33.26988 | -111.69667 | 13662 ft | 337 kts | 141° |
| 2026-04-25 17:19 | 33.25310 | -111.67614 | 14022 ft | 354 kts | 138° |
| 2026-04-25 17:19 | 33.23618 | -111.65403 | 14463 ft | 365 kts | 137° |
| 2026-04-25 17:19 | 33.21889 | -111.63170 | 15136 ft | 368 kts | 139° |
| 2026-04-25 17:19 | 33.20095 | -111.60976 | 15791 ft | 371 kts | 140° |
| 2026-04-25 17:20 | 33.18266 | -111.58770 | 16423 ft | 375 kts | 140° |
| 2026-04-25 17:20 | 33.16439 | -111.56523 | 17046 ft | 379 kts | 140° |
| 2026-04-25 17:20 | 33.14595 | -111.54256 | 17621 ft | 383 kts | 140° |
| 2026-04-25 17:20 | 33.12753 | -111.51995 | 18224 ft | 386 kts | 140° |
| 2026-04-25 17:21 | 33.10869 | -111.49688 | 18733 ft | 390 kts | 141° |
| 2026-04-25 17:21 | 33.08965 | -111.47356 | 19227 ft | 394 kts | 140° |
| 2026-04-25 17:21 | 33.07054 | -111.44985 | 19705 ft | 400 kts | 138° |
| 2026-04-25 17:21 | 33.05331 | -111.42331 | 20188 ft | 410 kts | 130° |
| 2026-04-25 17:22 | 33.03796 | -111.39437 | 20654 ft | 416 kts | 127° |
| 2026-04-25 17:22 | 33.03290 | -111.38438 | 20814 ft | 417 kts | 127° |
| 2026-04-25 17:22 | 33.00771 | -111.33497 | 21571 ft | 423 kts | 128° |
| 2026-04-25 17:22 | 32.99164 | -111.30546 | 22014 ft | 425 kts | 129° |
| 2026-04-25 17:23 | 32.97517 | -111.27603 | 22436 ft | 429 kts | 129° |
| 2026-04-25 17:23 | 32.95868 | -111.24624 | 22866 ft | 433 kts | 129° |
| 2026-04-25 17:23 | 32.94212 | -111.21614 | 23281 ft | 437 kts | 129° |
| 2026-04-25 17:23 | 32.92538 | -111.18573 | 23648 ft | 440 kts | 129° |
| 2026-04-25 17:24 | 32.90854 | -111.15515 | 23993 ft | 443 kts | 129° |
| 2026-04-25 17:24 | 32.89156 | -111.12436 | 24289 ft | 447 kts | 129° |
| 2026-04-25 17:24 | 32.87440 | -111.09334 | 24599 ft | 451 kts | 129° |
| 2026-04-25 17:24 | 32.85710 | -111.06205 | 24923 ft | 454 kts | 129° |
| 2026-04-25 17:25 | 32.83972 | -111.03057 | 25236 ft | 457 kts | 129° |
| 2026-04-25 17:25 | 32.82210 | -110.99899 | 25554 ft | 459 kts | 130° |
| 2026-04-25 17:25 | 32.80453 | -110.96710 | 25854 ft | 463 kts | 129° |
| 2026-04-25 17:25 | 32.78677 | -110.93503 | 26164 ft | 466 kts | 130° |
| 2026-04-25 17:26 | 32.76888 | -110.90277 | 26455 ft | 468 kts | 130° |
| 2026-04-25 17:26 | 32.75085 | -110.87034 | 26723 ft | 471 kts | 130° |
| 2026-04-25 17:26 | 32.73276 | -110.83778 | 27001 ft | 474 kts | 130° |
| 2026-04-25 17:26 | 32.71454 | -110.80502 | 27255 ft | 476 kts | 130° |
| 2026-04-25 17:27 | 32.69650 | -110.77256 | 27475 ft | 480 kts | 130° |
| 2026-04-25 17:27 | 32.67798 | -110.73942 | 27715 ft | 482 kts | 130° |
| 2026-04-25 17:27 | 32.65932 | -110.70603 | 27788 ft | 490 kts | 130° |
| 2026-04-25 17:27 | 32.65302 | -110.69453 | 27802 ft | 494 kts | 128° |
| 2026-04-25 17:28 | 32.63078 | -110.63072 | 28134 ft | 512 kts | 109° |
| 2026-04-25 17:28 | 32.62266 | -110.58931 | 28332 ft | 517 kts | 105° |
| 2026-04-25 17:28 | 32.61528 | -110.54741 | 28549 ft | 520 kts | 106° |
| 2026-04-25 17:28 | 32.60695 | -110.50572 | 28781 ft | 520 kts | 108° |
| 2026-04-25 17:29 | 32.58750 | -110.42190 | 28833 ft | 534 kts | 109° |
| 2026-04-25 17:29 | 32.56825 | -110.33584 | 28899 ft | 546 kts | 109° |
| 2026-04-25 17:30 | 32.55873 | -110.29199 | 29044 ft | 550 kts | 108° |
| 2026-04-25 17:30 | 32.54905 | -110.24799 | 29203 ft | 552 kts | 108° |
| 2026-04-25 17:30 | 32.53922 | -110.20398 | 29319 ft | 555 kts | 109° |
| 2026-04-25 17:30 | 32.52929 | -110.15973 | 29473 ft | 556 kts | 109° |
| 2026-04-25 17:31 | 32.51932 | -110.11528 | 29632 ft | 559 kts | 109° |
| 2026-04-25 17:31 | 32.50930 | -110.07071 | 29766 ft | 561 kts | 108° |
| 2026-04-25 17:31 | 32.48906 | -109.98099 | 29850 ft | 568 kts | 108° |
| 2026-04-25 17:32 | 32.46868 | -109.89094 | 29839 ft | 548 kts | 109° |
| 2026-04-25 17:32 | 32.45911 | -109.84893 | 29822 ft | 526 kts | 109° |
| 2026-04-25 17:32 | 32.44956 | -109.80700 | 29816 ft | 530 kts | 109° |
| 2026-04-25 17:33 | 32.43147 | -109.72119 | 29828 ft | 545 kts | 103° |
| 2026-04-25 17:33 | 32.42172 | -109.63120 | 29837 ft | 558 kts | 98° |
| 2026-04-25 17:34 | 32.41089 | -109.53981 | 29834 ft | 559 kts | 102° |
| 2026-04-25 17:34 | 32.39891 | -109.44816 | 29826 ft | 569 kts | 100° |
| 2026-04-25 17:35 | 32.38926 | -109.37212 | 29812 ft | 544 kts | 101° |
| 2026-04-25 17:35 | 32.38366 | -109.32883 | 29795 ft | 521 kts | 101° |
| 2026-04-25 17:35 | 32.37638 | -109.27280 | 29798 ft | 526 kts | 101° |
| 2026-04-25 17:36 | 32.36702 | -109.20047 | 29820 ft | 522 kts | 101° |
| 2026-04-25 17:36 | 32.35624 | -109.11449 | 29811 ft | 536 kts | 99° |
| 2026-04-25 17:37 | 32.34797 | -109.02587 | 29810 ft | 547 kts | 104° |
| 2026-04-25 17:37 | 32.33643 | -108.98314 | 29826 ft | 543 kts | 120° |
| 2026-04-25 17:37 | 32.31708 | -108.94530 | 29835 ft | 536 kts | 135° |
| 2026-04-25 17:38 | 32.29128 | -108.91439 | 29847 ft | 524 kts | 150° |
| 2026-04-25 17:38 | 32.27147 | -108.89849 | 29860 ft | 516 kts | 158° |
| 2026-04-25 17:38 | 32.23248 | -108.86373 | 29805 ft | 541 kts | 140° |
| 2026-04-25 17:38 | 32.20929 | -108.82798 | 29845 ft | 553 kts | 131° |
| 2026-04-25 17:39 | 32.18422 | -108.79427 | 29848 ft | 541 kts | 146° |
| 2026-04-25 17:39 | 32.15458 | -108.76993 | 29850 ft | 495 kts | 162° |
| 2026-04-25 17:39 | 32.12396 | -108.75631 | 29840 ft | 449 kts | 178° |
| 2026-04-25 17:39 | 32.09453 | -108.75328 | 29822 ft | 403 kts | 196° |
| 2026-04-25 17:40 | 32.06891 | -108.76014 | 29829 ft | 359 kts | 213° |
| 2026-04-25 17:40 | 32.04532 | -108.76876 | 29808 ft | 354 kts | 202° |
| 2026-04-25 17:40 | 31.99594 | -108.77028 | 29793 ft | 382 kts | 177° |
| 2026-04-25 17:41 | 31.97060 | -108.75722 | 29824 ft | 417 kts | 156° |
| 2026-04-25 17:41 | 31.94818 | -108.73390 | 29859 ft | 446 kts | 137° |
| 2026-04-25 17:41 | 31.93124 | -108.70222 | 29878 ft | 469 kts | 118° |
| 2026-04-25 17:41 | 31.92175 | -108.66537 | 29889 ft | 485 kts | 100° |
| 2026-04-25 17:42 | 31.92055 | -108.62534 | 29897 ft | 495 kts | 83° |
| 2026-04-25 17:42 | 31.92807 | -108.58567 | 29900 ft | 499 kts | 65° |
| 2026-04-25 17:42 | 31.94381 | -108.54950 | 29902 ft | 496 kts | 49° |
| 2026-04-25 17:42 | 31.96664 | -108.51948 | 29903 ft | 488 kts | 32° |
| 2026-04-25 17:43 | 31.99467 | -108.49796 | 29897 ft | 475 kts | 14° |
| 2026-04-25 17:43 | 32.02560 | -108.48648 | 29895 ft | 459 kts | 358° |
| 2026-04-25 17:43 | 32.05679 | -108.48578 | 29912 ft | 442 kts | 341° |
| 2026-04-25 17:43 | 32.08712 | -108.49216 | 29933 ft | 444 kts | 339° |
| 2026-04-25 17:44 | 32.11810 | -108.49752 | 29925 ft | 460 kts | 346° |
| 2026-04-25 17:44 | 32.15096 | -108.49548 | 29928 ft | 486 kts | 0° |
| 2026-04-25 17:44 | 32.18404 | -108.48339 | 29941 ft | 513 kts | 16° |
| 2026-04-25 17:44 | 32.21424 | -108.46145 | 29929 ft | 507 kts | 32° |
| 2026-04-25 17:45 | 32.23886 | -108.43137 | 29914 ft | 519 kts | 47° |
| 2026-04-25 17:45 | 32.25191 | -108.40736 | 29890 ft | 530 kts | 58° |
| 2026-04-25 17:45 | 32.26845 | -108.35170 | 29870 ft | 547 kts | 79° |
| 2026-04-25 17:45 | 32.27123 | -108.30668 | 29860 ft | 552 kts | 93° |
| 2026-04-25 17:46 | 32.26552 | -108.21544 | 29842 ft | 563 kts | 97° |
| 2026-04-25 17:46 | 32.25612 | -108.12589 | 29807 ft | 530 kts | 101° |
| 2026-04-25 17:47 | 32.25085 | -108.08365 | 29670 ft | 511 kts | 100° |
| 2026-04-25 17:47 | 32.24575 | -108.04196 | 29181 ft | 512 kts | 100° |
| 2026-04-25 17:47 | 32.24094 | -108.00055 | 28771 ft | 507 kts | 99° |
| 2026-04-25 17:47 | 32.23634 | -107.95953 | 28347 ft | 502 kts | 99° |
| 2026-04-25 17:48 | 32.22725 | -107.87839 | 27528 ft | 494 kts | 99° |
| 2026-04-25 17:48 | 32.22267 | -107.83836 | 27134 ft | 490 kts | 99° |
| 2026-04-25 17:48 | 32.21810 | -107.79873 | 26959 ft | 486 kts | 99° |
| 2026-04-25 17:49 | 32.21353 | -107.75928 | 26585 ft | 483 kts | 99° |
| 2026-04-25 17:49 | 32.20900 | -107.72017 | 26237 ft | 479 kts | 99° |
| 2026-04-25 17:49 | 32.20450 | -107.68131 | 25846 ft | 477 kts | 99° |
| 2026-04-25 17:49 | 32.20001 | -107.64263 | 25408 ft | 476 kts | 100° |
| 2026-04-25 17:50 | 32.19551 | -107.60387 | 24969 ft | 475 kts | 100° |
| 2026-04-25 17:50 | 32.19100 | -107.56540 | 24491 ft | 474 kts | 100° |
| 2026-04-25 17:50 | 32.18661 | -107.52747 | 24048 ft | 473 kts | 100° |
| 2026-04-25 17:50 | 32.18203 | -107.48868 | 23601 ft | 471 kts | 99° |
| 2026-04-25 17:51 | 32.17760 | -107.45103 | 23091 ft | 466 kts | 100° |
| 2026-04-25 17:51 | 32.17318 | -107.41344 | 22566 ft | 457 kts | 100° |
| 2026-04-25 17:51 | 32.16881 | -107.37646 | 22040 ft | 449 kts | 99° |
| 2026-04-25 17:51 | 32.16448 | -107.34005 | 21524 ft | 442 kts | 100° |
| 2026-04-25 17:52 | 32.16028 | -107.30450 | 21038 ft | 436 kts | 100° |
| 2026-04-25 17:52 | 32.15744 | -107.28095 | 20727 ft | 432 kts | 100° |
| 2026-04-25 17:52 | 32.15190 | -107.23450 | 20134 ft | 425 kts | 99° |
| 2026-04-25 17:52 | 32.14783 | -107.20043 | 19700 ft | 421 kts | 100° |
| 2026-04-25 17:53 | 32.14370 | -107.16596 | 19268 ft | 416 kts | 99° |
| 2026-04-25 17:53 | 32.13964 | -107.13224 | 18826 ft | 413 kts | 100° |
| 2026-04-25 17:53 | 32.13558 | -107.09882 | 18342 ft | 411 kts | 100° |
| 2026-04-25 17:53 | 32.13157 | -107.06548 | 17800 ft | 409 kts | 99° |
| 2026-04-25 17:54 | 32.12758 | -107.03240 | 17244 ft | 407 kts | 100° |
| 2026-04-25 17:54 | 32.12362 | -106.99939 | 16699 ft | 405 kts | 99° |
| 2026-04-25 17:54 | 32.11931 | -106.96716 | 16171 ft | 402 kts | 103° |
| 2026-04-25 17:54 | 32.11262 | -106.93528 | 15641 ft | 398 kts | 108° |
| 2026-04-25 17:55 | 32.10505 | -106.90397 | 15110 ft | 396 kts | 108° |
| 2026-04-25 17:55 | 32.09759 | -106.87280 | 14521 ft | 394 kts | 108° |
| 2026-04-25 17:55 | 32.09020 | -106.84185 | 14037 ft | 391 kts | 108° |
| 2026-04-25 17:55 | 32.08285 | -106.81113 | 13526 ft | 388 kts | 108° |
| 2026-04-25 17:56 | 32.07554 | -106.78060 | 12982 ft | 385 kts | 108° |
| 2026-04-25 17:56 | 32.06829 | -106.75029 | 12423 ft | 382 kts | 108° |
| 2026-04-25 17:56 | 32.06107 | -106.72031 | 11884 ft | 379 kts | 108° |
| 2026-04-25 17:56 | 32.05388 | -106.69055 | 11355 ft | 375 kts | 108° |
| 2026-04-25 17:57 | 32.04674 | -106.66107 | 10844 ft | 372 kts | 108° |
| 2026-04-25 17:57 | 32.03967 | -106.63191 | 10324 ft | 369 kts | 108° |
| 2026-04-25 17:57 | 32.03265 | -106.60298 | 9812 ft | 365 kts | 108° |
| 2026-04-25 17:57 | 32.03028 | -106.59330 | 9630 ft | 364 kts | 108° |
| 2026-04-25 17:58 | 32.01874 | -106.54610 | 8701 ft | 358 kts | 108° |
| 2026-04-25 17:58 | 32.01185 | -106.51810 | 8152 ft | 353 kts | 108° |
| 2026-04-25 17:58 | 32.00509 | -106.49053 | 7633 ft | 348 kts | 107° |
| 2026-04-25 17:58 | 31.99842 | -106.46329 | 7116 ft | 344 kts | 108° |
| 2026-04-25 17:59 | 31.99175 | -106.43651 | 6613 ft | 335 kts | 108° |
| 2026-04-25 17:59 | 31.98534 | -106.41087 | 6234 ft | 316 kts | 108° |
| 2026-04-25 17:59 | 31.97944 | -106.38689 | 6053 ft | 294 kts | 108° |
| 2026-04-25 17:59 | 31.97400 | -106.36458 | 5960 ft | 272 kts | 108° |
| 2026-04-25 18:00 | 31.96904 | -106.34396 | 5911 ft | 252 kts | 107° |
| 2026-04-25 18:00 | 31.96450 | -106.32473 | 5892 ft | 235 kts | 108° |
| 2026-04-25 18:00 | 31.96024 | -106.30673 | 5886 ft | 232 kts | 108° |
| 2026-04-25 18:00 | 31.95562 | -106.28757 | 5937 ft | 247 kts | 108° |
| 2026-04-25 18:01 | 31.95095 | -106.26812 | 5961 ft | 247 kts | 108° |
| 2026-04-25 18:01 | 31.94629 | -106.24862 | 5958 ft | 248 kts | 107° |
| 2026-04-25 18:01 | 31.94353 | -106.22848 | 5942 ft | 250 kts | 97° |
| 2026-04-25 18:01 | 31.93807 | -106.20968 | 5921 ft | 245 kts | 129° |
| 2026-04-25 18:02 | 31.92549 | -106.19720 | 5921 ft | 235 kts | 163° |
| 2026-04-25 18:02 | 31.91001 | -106.19490 | 5961 ft | 220 kts | 197° |
| 2026-04-25 18:02 | 31.89717 | -106.20295 | 5967 ft | 206 kts | 232° |
| 2026-04-25 18:02 | 31.89197 | -106.21790 | 5982 ft | 199 kts | 272° |
| 2026-04-25 18:03 | 31.89684 | -106.23278 | 6014 ft | 201 kts | 313° |
| 2026-04-25 18:03 | 31.90915 | -106.24035 | 6031 ft | 203 kts | 338° |
| 2026-04-25 18:03 | 31.92072 | -106.24907 | 5996 ft | 197 kts | 303° |
| 2026-04-25 18:03 | 31.92879 | -106.26219 | 6012 ft | 200 kts | 301° |
| 2026-04-25 18:04 | 31.93687 | -106.27568 | 6025 ft | 204 kts | 302° |
| 2026-04-25 18:04 | 31.94486 | -106.28969 | 6035 ft | 208 kts | 300° |
| 2026-04-25 18:04 | 31.95297 | -106.30407 | 6037 ft | 213 kts | 300° |
| 2026-04-25 18:04 | 31.96117 | -106.31882 | 6028 ft | 218 kts | 301° |
| 2026-04-25 18:05 | 31.97006 | -106.33354 | 6001 ft | 225 kts | 311° |
| 2026-04-25 18:05 | 31.98393 | -106.34256 | 5967 ft | 236 kts | 345° |
| 2026-04-25 18:05 | 32.00036 | -106.34098 | 5938 ft | 243 kts | 20° |
| 2026-04-25 18:05 | 32.01403 | -106.32947 | 5901 ft | 246 kts | 51° |
| 2026-04-25 18:06 | 32.02089 | -106.31122 | 5868 ft | 246 kts | 84° |
| 2026-04-25 18:06 | 32.01875 | -106.29196 | 5859 ft | 232 kts | 118° |
| 2026-04-25 18:06 | 32.00878 | -106.27845 | 5845 ft | 212 kts | 156° |
| 2026-04-25 18:06 | 31.99543 | -106.27469 | 5808 ft | 189 kts | 186° |
| 2026-04-25 18:07 | 31.98296 | -106.27126 | 5690 ft | 191 kts | 150° |
| 2026-04-25 18:07 | 31.97333 | -106.26096 | 5650 ft | 183 kts | 138° |
| 2026-04-25 18:07 | 31.96544 | -106.24970 | 5561 ft | 172 kts | 140° |
| 2026-04-25 18:07 | 31.95467 | -106.24275 | 5437 ft | 177 kts | 185° |
| 2026-04-25 18:08 | 31.94352 | -106.24577 | 5377 ft | 174 kts | 216° |
| 2026-04-25 18:08 | 31.93256 | -106.25265 | 5784 ft | 167 kts | 216° |
| 2026-04-25 18:08 | 31.92371 | -106.25839 | 6077 ft | 121 kts | 215° |
| 2026-04-25 18:08 | 31.91621 | -106.26335 | 6119 ft | 129 kts | 216° |
| 2026-04-25 18:09 | 31.90823 | -106.26883 | 6143 ft | 127 kts | 218° |
| 2026-04-25 18:09 | 31.90100 | -106.27357 | 5982 ft | 119 kts | 216° |
| 2026-04-25 18:09 | 31.89400 | -106.27857 | 6019 ft | 123 kts | 219° |
| 2026-04-25 18:09 | 31.89146 | -106.28035 | 6064 ft | 129 kts | 216° |
| 2026-04-25 18:10 | 31.88032 | -106.28983 | 5616 ft | 120 kts | 227° |
| 2026-04-25 18:10 | 31.87550 | -106.29814 | 5683 ft | 130 kts | 242° |
| 2026-04-25 18:10 | 31.87076 | -106.30734 | 5731 ft | 138 kts | 242° |
| 2026-04-25 18:10 | 31.86350 | -106.31554 | 5788 ft | 160 kts | 219° |
| 2026-04-25 18:11 | 31.85519 | -106.32336 | 5542 ft | 140 kts | 230° |
| 2026-04-25 18:11 | 31.84948 | -106.33231 | 5108 ft | 137 kts | 236° |
| 2026-04-25 18:11 | 31.84364 | -106.34085 | 4679 ft | 138 kts | 236° |
| 2026-04-25 18:11 | 31.83680 | -106.35041 | 4530 ft | 161 kts | 239° |
| 2026-04-25 18:12 | 31.83010 | -106.35990 | 4255 ft | 144 kts | 240° |
| 2026-04-25 18:12 | 31.82376 | -106.36885 | 4027 ft | 141 kts | 235° |
| 2026-04-25 18:12 | 31.81767 | -106.37740 | 3947 ft | 119 kts | 231° |
| 2026-04-25 18:12 | 31.81351 | -106.38323 | 3945 ft | 66 kts | 229° |
| 2026-04-25 18:13 | 31.81196 | -106.38470 | 3946 ft | 8 kts | 165° |
| 2026-04-25 18:13 | 31.81145 | -106.38433 | 3945 ft | 12 kts | 149° |
| 2026-04-25 18:13 | 31.81043 | -106.38343 | 3945 ft | 23 kts | 133° |
| 2026-04-25 18:14 | 31.81626 | -106.37403 | 3945 ft | 135 kts | 50° |
| 2026-04-25 18:14 | 31.81898 | -106.36935 | 3945 ft | 33 kts | 98° |
| 2026-04-25 18:14 | 31.81854 | -106.36808 | 3945 ft | 0 kts | 149° |
| 2026-04-25 18:15 | 31.81853 | -106.36808 | 3945 ft | 0 kts | 149° |